Time;durP1;ratioP1;P1;durP2;ratioP2;P2;SDS_P1;SDS_P2;PMS_P1;PMS_P2;Temp;Humidity;BMP_temperature;BMP_pressure;BME280_temperature;BME280_humidity;BME280_pressure;Samples;Min_cycle;Max_cycle;Signal;HPM_P1;HPM_P2
2020/02/14 00:01:12;;;;;;;2.1;1;;;;;;;;;;;;;
2020/02/14 00:07:27;;;;;;;3.5;1.2;;;;;;;;;;;;;
2020/02/14 00:09:23;;;;;;;3.1;1;;;;;;;;;;;;;
2020/02/14 00:11:51;;;;;;;1.9;0.8;;;;;;;;;;;;;
2020/02/14 00:14:14;;;;;;;1.6;0.9;;;;;;;;;;;;;
2020/02/14 00:17:10;;;;;;;1.2;0.7;;;;;;;;;;;;;
2020/02/14 00:21:55;;;;;;;3;1;;;;;;;;;;;;;
2020/02/14 00:24:28;;;;;;;1.5;0.7;;;;;;;;;;;;;
2020/02/14 00:29:23;;;;;;;2.1;0.8;;;;;;;;;;;;;
2020/02/14 00:32:20;;;;;;;0.8;0.6;;;;;;;;;;;;;
2020/02/14 00:34:30;;;;;;;1.3;0.7;;;;;;;;;;;;;
2020/02/14 00:37:01;;;;;;;1.4;0.8;;;;;;;;;;;;;
2020/02/14 00:39:27;;;;;;;2.1;0.9;;;;;;;;;;;;;
2020/02/14 00:41:57;;;;;;;2.6;0.8;;;;;;;;;;;;;
2020/02/14 00:44:30;;;;;;;1.5;0.7;;;;;;;;;;;;;
2020/02/14 00:46:53;;;;;;;1.3;0.8;;;;;;;;;;;;;
2020/02/14 00:49:19;;;;;;;2.1;0.9;;;;;;;;;;;;;
2020/02/14 00:51:50;;;;;;;2.8;1.1;;;;;;;;;;;;;
2020/02/14 00:54:16;;;;;;;1.8;1;;;;;;;;;;;;;
2020/02/14 00:56:45;;;;;;;1.9;1.1;;;;;;;;;;;;;
2020/02/14 00:59:16;;;;;;;2.5;1.2;;;;;;;;;;;;;
2020/02/14 01:01:49;;;;;;;3.8;1.6;;;;;;;;;;;;;
2020/02/14 01:04:09;;;;;;;2;1.1;;;;;;;;;;;;;
2020/02/14 01:09:16;;;;;;;1.9;1.1;;;;;;;;;;;;;
2020/02/14 01:11:34;;;;;;;3.4;1.5;;;;;;;;;;;;;
2020/02/14 01:14:13;;;;;;;2.6;1.3;;;;;;;;;;;;;
2020/02/14 01:16:36;;;;;;;1.7;0.9;;;;;;;;;;;;;
2020/02/14 01:19:01;;;;;;;1.2;0.7;;;;;;;;;;;;;
2020/02/14 01:21:41;;;;;;;3.1;1.4;;;;;;;;;;;;;
2020/02/14 01:24:04;;;;;;;1.3;0.7;;;;;;;;;;;;;
2020/02/14 01:26:36;;;;;;;2.7;1.2;;;;;;;;;;;;;
2020/02/14 01:29:02;;;;;;;1.2;0.7;;;;;;;;;;;;;
2020/02/14 01:31:40;;;;;;;2.3;1.1;;;;;;;;;;;;;
2020/02/14 01:34:03;;;;;;;1.2;0.6;;;;;;;;;;;;;
2020/02/14 01:36:30;;;;;;;0.9;0.7;;;;;;;;;;;;;
2020/02/14 01:39:30;;;;;;;2.2;0.9;;;;;;;;;;;;;
2020/02/14 01:42:24;;;;;;;2.9;1.4;;;;;;;;;;;;;
2020/02/14 01:44:38;;;;;;;1;0.6;;;;;;;;;;;;;
2020/02/14 01:47:14;;;;;;;1.3;0.8;;;;;;;;;;;;;
2020/02/14 01:49:42;;;;;;;0.8;0.5;;;;;;;;;;;;;
2020/02/14 01:52:07;;;;;;;1.9;0.6;;;;;;;;;;;;;
2020/02/14 01:54:39;;;;;;;0.6;0.5;;;;;;;;;;;;;
2020/02/14 01:57:12;;;;;;;1.8;0.6;;;;;;;;;;;;;
2020/02/14 01:59:37;;;;;;;2;0.9;;;;;;;;;;;;;
2020/02/14 02:02:16;;;;;;;1;0.6;;;;;;;;;;;;;
2020/02/14 02:04:41;;;;;;;1;0.6;;;;;;;;;;;;;
2020/02/14 02:07:12;;;;;;;1.8;1;;;;;;;;;;;;;
2020/02/14 02:09:35;;;;;;;4;1.9;;;;;;;;;;;;;
2020/02/14 02:14:03;;;;;;;3.5;1.1;;;;;;;;;;;;;
2020/02/14 02:14:46;;;;;;;1.6;0.7;;;;;;;;;;;;;
2020/02/14 02:19:34;;;;;;;2;1;;;;;;;;;;;;;
2020/02/14 02:21:56;;;;;;;0.8;0.5;;;;;;;;;;;;;
2020/02/14 02:24:35;;;;;;;0.5;0.5;;;;;;;;;;;;;
2020/02/14 02:29:26;;;;;;;5.1;2.3;;;;;;;;;;;;;
2020/02/14 02:31:52;;;;;;;1;0.5;;;;;;;;;;;;;
2020/02/14 02:34:27;;;;;;;2;0.8;;;;;;;;;;;;;
2020/02/14 02:36:56;;;;;;;1.3;0.7;;;;;;;;;;;;;
2020/02/14 02:39:22;;;;;;;1.2;0.5;;;;;;;;;;;;;
2020/02/14 02:41:56;;;;;;;1.2;0.4;;;;;;;;;;;;;
2020/02/14 02:44:27;;;;;;;4.4;1.7;;;;;;;;;;;;;
2020/02/14 02:47:25;;;;;;;2.9;1.3;;;;;;;;;;;;;
2020/02/14 02:49:44;;;;;;;2.4;0.6;;;;;;;;;;;;;
2020/02/14 02:52:14;;;;;;;1;0.4;;;;;;;;;;;;;
2020/02/14 02:54:46;;;;;;;4.5;1.8;;;;;;;;;;;;;
2020/02/14 02:57:22;;;;;;;2.3;0.9;;;;;;;;;;;;;
2020/02/14 03:00:00;;;;;;;2.1;0.8;;;;;;;;;;;;;
2020/02/14 03:02:23;;;;;;;1.3;0.4;;;;;;;;;;;;;
2020/02/14 03:05:22;;;;;;;0.7;0.5;;;;;;;;;;;;;
2020/02/14 03:07:40;;;;;;;0.7;0.4;;;;;;;;;;;;;
2020/02/14 03:10:10;;;;;;;5.3;2.6;;;;;;;;;;;;;
2020/02/14 03:12:45;;;;;;;3.2;1.3;;;;;;;;;;;;;
2020/02/14 03:15:17;;;;;;;1.9;0.8;;;;;;;;;;;;;
2020/02/14 03:17:42;;;;;;;2.1;0.8;;;;;;;;;;;;;
2020/02/14 03:20:13;;;;;;;1.3;0.8;;;;;;;;;;;;;
2020/02/14 03:22:38;;;;;;;1.5;0.4;;;;;;;;;;;;;
2020/02/14 03:25:08;;;;;;;1.6;0.4;;;;;;;;;;;;;
2020/02/14 03:28:24;;;;;;;0.8;0.4;;;;;;;;;;;;;
2020/02/14 03:33:29;;;;;;;1.2;0.5;;;;;;;;;;;;;
2020/02/14 03:36:22;;;;;;;2;1;;;;;;;;;;;;;
2020/02/14 03:38:40;;;;;;;2.4;0.8;;;;;;;;;;;;;
2020/02/14 03:41:18;;;;;;;1.5;0.8;;;;;;;;;;;;;
2020/02/14 03:43:40;;;;;;;1.1;0.5;;;;;;;;;;;;;
2020/02/14 03:46:13;;;;;;;1.5;0.8;;;;;;;;;;;;;
2020/02/14 03:48:37;;;;;;;2;0.9;;;;;;;;;;;;;
2020/02/14 03:51:07;;;;;;;2;1.2;;;;;;;;;;;;;
2020/02/14 03:53:39;;;;;;;0.6;0.5;;;;;;;;;;;;;
2020/02/14 03:56:15;;;;;;;1.3;0.6;;;;;;;;;;;;;
2020/02/14 03:58:40;;;;;;;1.4;0.8;;;;;;;;;;;;;
2020/02/14 04:02:51;;;;;;;1.6;0.8;;;;;;;5.35;84.21094;934.817;;;;
2020/02/14 04:05:26;;;;;;;0.9;0.6;;;;;;;5.29;83.9043;934.7927;;;;
2020/02/14 04:08:08;;;;;;;1;0.6;;;;;;;5.31;82.39648;934.9367;;;;
2020/02/14 04:13:26;;;;;;;1.9;0.7;;;;;;;5.58;82.28027;934.9922;;;;
2020/02/14 04:15:58;;;;;;;2.6;1.1;;;;;;;5.65;82.62109;935.0186;;;;
2020/02/14 04:19:03;;;;;;;1.2;0.7;;;;;;;5.59;82.9834;935.1086;;;;
2020/02/14 04:21:47;;;;;;;1;0.9;;;;;;;5.6;82.64648;935.18;;;;
2020/02/14 04:24:09;;;;;;;2.1;1.3;;;;;;;5.66;82.89551;935.2803;;;;
2020/02/14 04:27:05;;;;;;;2.1;1.4;;;;;;;5.62;83.24805;935.27;;;;
2020/02/14 04:29:42;;;;;;;1.2;0.9;;;;;;;5.7;83.03809;935.4495;;;;
2020/02/14 04:32:33;;;;;;;2.2;0.8;;;;;;;5.73;83.04297;935.6476;;;;
2020/02/14 04:35:16;;;;;;;2.5;0.7;;;;;;;5.61;83.4043;935.7238;;;;
2020/02/14 04:37:43;;;;;;;2.4;1.1;;;;;;;5.54;84.08984;935.8506;;;;
2020/02/14 04:40:17;;;;;;;1.2;0.5;;;;;;;5.43;84.7666;936.0097;;;;
2020/02/14 04:42:45;;;;;;;1.3;0.5;;;;;;;5.42;85.18359;935.9669;;;;
2020/02/14 04:45:10;;;;;;;1.1;0.6;;;;;;;5.36;85.28418;935.9422;;;;
2020/02/14 04:47:42;;;;;;;2.4;0.8;;;;;;;5.45;85.1875;936.1475;;;;
2020/02/14 04:50:09;;;;;;;1.3;0.7;;;;;;;5.29;85.67773;936.2634;;;;
2020/02/14 04:52:37;;;;;;;1;0.5;;;;;;;5.23;86.08203;936.4141;;;;
2020/02/14 04:55:03;;;;;;;0.4;0.3;;;;;;;5.09;86.1543;936.4141;;;;
2020/02/14 04:57:30;;;;;;;0.6;0.4;;;;;;;4.79;87.01758;936.4108;;;;
2020/02/14 04:59:53;;;;;;;0.6;0.5;;;;;;;4.85;87.26758;936.415;;;;
2020/02/14 05:02:22;;;;;;;0.8;0.4;;;;;;;4.77;86.43945;936.4323;;;;
2020/02/14 05:05:15;;;;;;;4.4;4;;;;;;;4.97;84.86816;936.3546;;;;
2020/02/14 05:07:46;;;;;;;6.9;6.3;;;;;;;5.07;85.2041;936.5287;;;;
2020/02/14 05:10:11;;;;;;;0.7;0.6;;;;;;;5.09;85.5791;936.4196;;;;
2020/02/14 05:12:35;;;;;;;0.9;0.5;;;;;;;5.13;85.50977;936.4105;;;;
2020/02/14 05:15:03;;;;;;;1.8;0.6;;;;;;;5.24;85.33984;936.5186;;;;
2020/02/14 05:17:28;;;;;;;3;2.5;;;;;;;5.27;85.23242;936.5295;;;;
2020/02/14 05:20:19;;;;;;;2.6;1.4;;;;;;;5.19;85.3291;936.5304;;;;
2020/02/14 05:22:44;;;;;;;1.5;0.7;;;;;;;5.31;84.41797;936.5558;;;;
2020/02/14 05:25:15;;;;;;;0.7;0.7;;;;;;;5.39;84.09375;936.5714;;;;
2020/02/14 05:27:39;;;;;;;1.9;0.9;;;;;;;5.25;84.99121;936.6032;;;;
2020/02/14 05:30:08;;;;;;;1.7;0.9;;;;;;;4.95;86.23828;936.6189;;;;
2020/02/14 05:32:35;;;;;;;3.3;1.6;;;;;;;4.95;86.73535;936.7841;;;;
2020/02/14 05:35:15;;;;;;;2.9;1.4;;;;;;;5.03;86.65039;936.7503;;;;
2020/02/14 05:37:42;;;;;;;2.1;1;;;;;;;5.13;85.63379;936.678;;;;
2020/02/14 05:40:34;;;;;;;1.7;1.1;;;;;;;5.13;86.18457;936.8585;;;;
2020/02/14 05:45:09;;;;;;;1.8;0.9;;;;;;;5.1;85.4707;936.5769;;;;
2020/02/14 05:47:33;;;;;;;3.3;1.3;;;;;;;5.07;86.00391;936.8033;;;;
2020/02/14 05:50:04;;;;;;;1.3;1.2;;;;;;;5.07;85.75586;936.8042;;;;
2020/02/14 05:52:28;;;;;;;2.8;1.7;;;;;;;5.18;86.10449;936.9704;;;;
2020/02/14 05:55:02;;;;;;;1;0.9;;;;;;;5.11;86.10352;936.8731;;;;
2020/02/14 05:57:32;;;;;;;2.3;0.9;;;;;;;5.14;86.29883;936.9512;;;;
2020/02/14 06:00:03;;;;;;;2.8;1;;;;;;;5.18;86.10449;937.1496;;;;
2020/02/14 06:02:30;;;;;;;1.7;0.7;;;;;;;5.13;85.89258;937.1105;;;;
2020/02/14 06:04:58;;;;;;;2.6;1;;;;;;;5.23;85.98047;937.1577;;;;
2020/02/14 06:07:24;;;;;;;2.2;1.1;;;;;;;5.19;86.05078;937.2146;;;;
2020/02/14 06:10:08;;;;;;;4.3;3.5;;;;;;;5.13;86.27637;937.3188;;;;
2020/02/14 06:12:56;;;;;;;4;3;;;;;;;5.08;86.73828;937.3259;;;;
2020/02/14 06:15:21;;;;;;;6.1;3.3;;;;;;;5.06;86.02441;937.4595;;;;
2020/02/14 06:17:56;;;;;;;2.2;1.9;;;;;;;4.98;85.30957;937.5706;;;;
2020/02/14 06:20:21;;;;;;;7.2;5.3;;;;;;;5;85.58594;937.7023;;;;
2020/02/14 06:22:49;;;;;;;3.9;2.3;;;;;;;4.97;86.07617;937.5957;;;;
2020/02/14 06:25:33;;;;;;;6.6;5;;;;;;;4.97;86.27734;937.6777;;;;
2020/02/14 06:28:14;;;;;;;31;27.8;;;;;;;5.04;85.87305;937.6917;;;;
2020/02/14 06:30:35;;;;;;;13.5;10.9;;;;;;;5.14;85.78223;937.8186;;;;
2020/02/14 06:33:15;;;;;;;11.9;10.7;;;;;;;4.99;85.92969;937.8114;;;;
2020/02/14 06:35:34;;;;;;;7.5;6.6;;;;;;;5.06;86.0459;937.9992;;;;
2020/02/14 06:37:59;;;;;;;4.4;3.6;;;;;;;4.93;86.3584;938.0645;;;;
2020/02/14 06:40:23;;;;;;;4.7;2.7;;;;;;;5.03;86.29004;938.1691;;;;
2020/02/14 06:42:51;;;;;;;2.2;1.2;;;;;;;5.09;86.68262;938.1879;;;;
2020/02/14 06:45:15;;;;;;;2.4;1.6;;;;;;;5.12;86.39844;938.2947;;;;
2020/02/14 06:47:40;;;;;;;2.3;1.3;;;;;;;5.21;86.38086;938.3961;;;;
2020/02/14 06:50:05;;;;;;;6.1;2.2;;;;;;;5.31;86.13086;938.4323;;;;
2020/02/14 06:52:33;;;;;;;7;3.3;;;;;;;5.22;86.13477;938.4178;;;;
2020/02/14 06:54:59;;;;;;;4.4;2.3;;;;;;;5.03;86.94336;938.5192;;;;
2020/02/14 06:58:18;;;;;;;3.3;2.2;;;;;;;5.09;86.93262;938.5139;;;;
2020/02/14 07:00:46;;;;;;;6.8;3.2;;;;;;;5.13;86.55664;938.5948;;;;
2020/02/14 07:03:15;;;;;;;9.3;4.8;;;;;;;5.15;86.65234;938.7612;;;;
2020/02/14 07:05:39;;;;;;;7.8;3.2;;;;;;;5.16;86.30469;938.8223;;;;
2020/02/14 07:08:05;;;;;;;7.7;4.2;;;;;;;5.24;86.13867;938.8422;;;;
2020/02/14 07:10:33;;;;;;;10;3.9;;;;;;;5.32;85.78418;938.8789;;;;
2020/02/14 07:12:59;;;;;;;8.4;3.8;;;;;;;5.31;85.5791;938.9416;;;;
2020/02/14 07:15:30;;;;;;;5.2;2.7;;;;;;;5.18;86.25293;938.9745;;;;
2020/02/14 07:17:53;;;;;;;22;11.2;;;;;;;5.3;86.0498;939.1244;;;;
2020/02/14 07:20:17;;;;;;;9.5;4.9;;;;;;;5.29;86.11523;939.1359;;;;
2020/02/14 07:22:49;;;;;;;7.1;3.8;;;;;;;5.35;85.86914;939.0999;;;;
2020/02/14 07:25:20;;;;;;;6;3.7;;;;;;;5.42;86.06152;939.1819;;;;
2020/02/14 07:27:47;;;;;;;18.7;9.1;;;;;;;5.46;86.18359;939.2115;;;;
2020/02/14 07:30:16;;;;;;;10.7;5.9;;;;;;;5.55;85.44629;939.2128;;;;
2020/02/14 07:32:39;;;;;;;7.1;4.5;;;;;;;5.41;85.67871;939.2156;;;;
2020/02/14 07:35:02;;;;;;;5.7;3.5;;;;;;;5.24;86.43359;939.3738;;;;
2020/02/14 07:37:28;;;;;;;5.6;4.2;;;;;;;5.25;86.00488;939.3004;;;;
2020/02/14 07:39:57;;;;;;;5.7;3.5;;;;;;;5.33;86.0459;939.3804;;;;
2020/02/14 07:42:21;;;;;;;5.6;4;;;;;;;5.45;86.02246;939.3897;;;;
2020/02/14 07:45:16;;;;;;;6.6;4.3;;;;;;;5.58;85.08984;939.3574;;;;
2020/02/14 07:47:38;;;;;;;9.7;5.2;;;;;;;5.79;85.04297;939.4325;;;;
2020/02/14 07:50:08;;;;;;;8.5;3.9;;;;;;;5.84;84.20508;939.4271;;;;
2020/02/14 07:52:35;;;;;;;6;3.9;;;;;;;5.86;84.19727;939.5627;;;;
2020/02/14 07:56:23;;;;;;;10.2;5.5;;;;;;;5.95;84.71191;939.6708;;;;
2020/02/14 07:58:38;;;;;;;11.6;6.4;;;;;;;6.03;84.17676;939.6158;;;;
2020/02/14 08:01:15;;;;;;;7.4;4.3;;;;;;;6.13;83.2334;939.6976;;;;
2020/02/14 08:03:46;;;;;;;8.1;4.3;;;;;;;6.15;83.29297;939.7408;;;;
2020/02/14 08:06:17;;;;;;;11.3;5.9;;;;;;;6.26;83.48438;939.8295;;;;
2020/02/14 08:08:52;;;;;;;6.4;4.4;;;;;;;6.32;83.36035;939.8984;;;;
2020/02/14 08:11:28;;;;;;;5;4.4;;;;;;;6.1;83.70313;939.9339;;;;
2020/02/14 08:13:55;;;;;;;5.5;4.6;;;;;;;;;;;;;
2020/02/14 08:18:51;;;;;;;9.6;4.9;;;;;;;;;;;;;
2020/02/14 08:21:20;;;;;;;5.4;3.9;;;;;;;;;;;;;
2020/02/14 08:23:43;;;;;;;5.5;3.3;;;;;;;;;;;;;
2020/02/14 08:28:39;;;;;;;3.5;1.6;;;;;;;;;;;;;
2020/02/14 08:31:04;;;;;;;5;3.7;;;;;;;;;;;;;
2020/02/14 08:33:24;;;;;;;5.3;3.9;;;;;;;;;;;;;
2020/02/14 08:35:49;;;;;;;5.9;3.7;;;;;;;;;;;;;
2020/02/14 08:38:15;;;;;;;8.7;4.4;;;;;;;;;;;;;
2020/02/14 08:43:09;;;;;;;2.2;1.8;;;;;;;;;;;;;
2020/02/14 08:45:37;;;;;;;2.7;1.6;;;;;;;;;;;;;
2020/02/14 08:48:02;;;;;;;3;1.1;;;;;;;;;;;;;
2020/02/14 08:50:29;;;;;;;7.5;2.6;;;;;;;;;;;;;
2020/02/14 08:53:14;;;;;;;7.8;4.6;;;;;;;;;;;;;
2020/02/14 08:55:44;;;;;;;9.7;3.8;;;;;;;;;;;;;
2020/02/14 08:58:11;;;;;;;4.7;2.1;;;;;;;;;;;;;
2020/02/14 09:00:41;;;;;;;2.7;1.6;;;;;;;;;;;;;
2020/02/14 09:03:06;;;;;;;12.2;7;;;;;;;;;;;;;
2020/02/14 09:05:32;;;;;;;10.3;7.7;;;;;;;;;;;;;
2020/02/14 09:08:24;;;;;;;6.1;3.6;;;;;;;;;;;;;
2020/02/14 09:10:43;;;;;;;9.8;3.1;;;;;;;;;;;;;
2020/02/14 09:13:10;;;;;;;3.7;1.2;;;;;;;;;;;;;
2020/02/14 09:15:44;;;;;;;2.3;0.8;;;;;;;;;;;;;
2020/02/14 09:18:14;;;;;;;6.9;3;;;;;;;;;;;;;
2020/02/14 09:20:36;;;;;;;6.6;5;;;;;;;;;;;;;
2020/02/14 09:23:03;;;;;;;3.9;2.5;;;;;;;;;;;;;
2020/02/14 09:25:30;;;;;;;3;1.6;;;;;;;;;;;;;
2020/02/14 09:27:59;;;;;;;4.4;1.9;;;;;;;;;;;;;
2020/02/14 09:30:43;;;;;;;2.6;1.5;;;;;;;;;;;;;
2020/02/14 09:35:39;;;;;;;4.2;1.8;;;;;;;;;;;;;
2020/02/14 09:37:52;;;;;;;5.4;2.1;;;;;;;;;;;;;
2020/02/14 09:40:16;;;;;;;4.2;2.1;;;;;;;;;;;;;
2020/02/14 09:42:48;;;;;;;7.5;3.8;;;;;;;;;;;;;
2020/02/14 09:45:13;;;;;;;8;4.4;;;;;;;;;;;;;
2020/02/14 09:47:38;;;;;;;6.7;3.6;;;;;;;;;;;;;
2020/02/14 09:50:06;;;;;;;8.3;4.5;;;;;;;;;;;;;
2020/02/14 09:52:29;;;;;;;3;1.6;;;;;;;;;;;;;
2020/02/14 09:55:02;;;;;;;2;1.1;;;;;;;;;;;;;
2020/02/14 09:57:24;;;;;;;2.9;1.3;;;;;;;;;;;;;
2020/02/14 09:59:45;;;;;;;1.6;0.8;;;;;;;;;;;;;
2020/02/14 10:02:09;;;;;;;1.5;0.8;;;;;;;;;;;;;
2020/02/14 10:04:35;;;;;;;2.6;0.9;;;;;;;;;;;;;
2020/02/14 10:07:02;;;;;;;2.7;1.2;;;;;;;;;;;;;
2020/02/14 10:09:27;;;;;;;2.4;1.3;;;;;;;;;;;;;
2020/02/14 10:11:50;;;;;;;2.1;0.8;;;;;;;;;;;;;
2020/02/14 10:14:16;;;;;;;2.4;0.6;;;;;;;;;;;;;
2020/02/14 10:16:47;;;;;;;0.7;0.4;;;;;;;;;;;;;
2020/02/14 10:19:06;;;;;;;1.3;0.7;;;;;;;;;;;;;
2020/02/14 10:21:33;;;;;;;1;0.4;;;;;;;;;;;;;
2020/02/14 10:24:07;;;;;;;1.6;0.8;;;;;;;;;;;;;
2020/02/14 10:26:28;;;;;;;2;1.2;;;;;;;;;;;;;
2020/02/14 10:28:53;;;;;;;2.7;1.9;;;;;;;;;;;;;
2020/02/14 10:31:23;;;;;;;2;1;;;;;;;;;;;;;
2020/02/14 10:34:17;;;;;;;1.2;0.9;;;;;;;;;;;;;
2020/02/14 10:36:30;;;;;;;1.5;0.6;;;;;;;;;;;;;
2020/02/14 10:38:57;;;;;;;0.9;0.5;;;;;;;;;;;;;
2020/02/14 10:41:20;;;;;;;1.8;0.7;;;;;;;;;;;;;
2020/02/14 10:43:46;;;;;;;2.5;0.8;;;;;;;;;;;;;
2020/02/14 10:46:47;;;;;;;2.1;1;;;;;;;;;;;;;
2020/02/14 10:48:44;;;;;;;2.4;0.9;;;;;;;;;;;;;
2020/02/14 10:51:07;;;;;;;2.6;1;;;;;;;;;;;;;
2020/02/14 10:53:33;;;;;;;2.5;1.1;;;;;;;;;;;;;
2020/02/14 10:56:06;;;;;;;1.9;1.2;;;;;;;;;;;;;
2020/02/14 10:58:26;;;;;;;5.5;2.7;;;;;;;;;;;;;
2020/02/14 11:01:02;;;;;;;5;2.1;;;;;;;;;;;;;
2020/02/14 11:03:14;;;;;;;1.7;0.9;;;;;;;;;;;;;
2020/02/14 11:05:42;;;;;;;1.7;0.9;;;;;;;;;;;;;
2020/02/14 11:08:09;;;;;;;1.9;0.9;;;;;;;;;;;;;
2020/02/14 11:10:45;;;;;;;2.4;1.2;;;;;;;;;;;;;
2020/02/14 11:13:02;;;;;;;3.1;0.8;;;;;;;;;;;;;
2020/02/14 11:15:29;;;;;;;1.9;0.8;;;;;;;;;;;;;
2020/02/14 11:17:58;;;;;;;1.9;0.7;;;;;;;;;;;;;
2020/02/14 11:20:17;;;;;;;1.4;0.7;;;;;;;;;;;;;
2020/02/14 11:22:45;;;;;;;2.7;0.7;;;;;;;;;;;;;
2020/02/14 11:27:34;;;;;;;1;0.6;;;;;;;;;;;;;
2020/02/14 11:30:01;;;;;;;1.8;0.9;;;;;;;;;;;;;
2020/02/14 11:32:29;;;;;;;1.6;0.8;;;;;;;;;;;;;
2020/02/14 11:35:20;;;;;;;2;1;;;;;;;;;;;;;
2020/02/14 11:37:37;;;;;;;1.1;0.7;;;;;;;;;;;;;
2020/02/14 11:39:59;;;;;;;2.7;0.7;;;;;;;;;;;;;
2020/02/14 11:42:28;;;;;;;2;0.6;;;;;;;;;;;;;
2020/02/14 11:44:53;;;;;;;1.3;0.7;;;;;;;;;;;;;
2020/02/14 11:47:26;;;;;;;1.4;0.5;;;;;;;;;;;;;
2020/02/14 11:49:51;;;;;;;1.4;0.7;;;;;;;;;;;;;
2020/02/14 11:52:16;;;;;;;1;0.6;;;;;;;;;;;;;
2020/02/14 11:54:49;;;;;;;1.2;0.7;;;;;;;;;;;;;
2020/02/14 11:57:12;;;;;;;1.3;0.6;;;;;;;;;;;;;
2020/02/14 11:59:44;;;;;;;1;0.6;;;;;;;;;;;;;
2020/02/14 12:02:10;;;;;;;1.6;0.7;;;;;;;;;;;;;
2020/02/14 12:04:30;;;;;;;1.2;0.7;;;;;;;;;;;;;
2020/02/14 12:07:07;;;;;;;2.1;1;;;;;;;;;;;;;
2020/02/14 12:09:24;;;;;;;1.6;0.8;;;;;;;;;;;;;
2020/02/14 12:11:52;;;;;;;1.5;1.1;;;;;;;;;;;;;
2020/02/14 12:14:19;;;;;;;4.1;1.2;;;;;;;;;;;;;
2020/02/14 12:16:55;;;;;;;2.1;1;;;;;;;;;;;;;
2020/02/14 12:20:05;;;;;;;1.5;1.1;;;;;;;;;;;;;
2020/02/14 12:21:53;;;;;;;1.5;0.9;;;;;;;;;;;;;
2020/02/14 12:24:22;;;;;;;1.3;0.8;;;;;;;;;;;;;
2020/02/14 12:26:45;;;;;;;2;1.7;;;;;;;;;;;;;
2020/02/14 12:29:19;;;;;;;1.8;0.9;;;;;;;;;;;;;
2020/02/14 12:34:14;;;;;;;1.5;0.9;;;;;;;;;;;;;
2020/02/14 12:36:36;;;;;;;1.4;0.7;;;;;;;;;;;;;
2020/02/14 12:39:06;;;;;;;1;0.7;;;;;;;;;;;;;
2020/02/14 12:41:32;;;;;;;1.4;0.7;;;;;;;;;;;;;
2020/02/14 12:43:57;;;;;;;1.6;0.6;;;;;;;;;;;;;
2020/02/14 12:46:27;;;;;;;1.2;0.6;;;;;;;;;;;;;
2020/02/14 12:48:58;;;;;;;0.8;0.5;;;;;;;;;;;;;
2020/02/14 12:51:23;;;;;;;0.7;0.3;;;;;;;;;;;;;
2020/02/14 12:53:52;;;;;;;1.8;0.8;;;;;;;;;;;;;
2020/02/14 12:56:15;;;;;;;10;0.8;;;;;;;;;;;;;
2020/02/14 12:58:42;;;;;;;1.4;0.8;;;;;;;;;;;;;
2020/02/14 13:01:05;;;;;;;0.8;0.6;;;;;;;;;;;;;
2020/02/14 13:03:33;;;;;;;1.2;0.6;;;;;;;;;;;;;
2020/02/14 13:06:05;;;;;;;1.3;0.6;;;;;;;;;;;;;
2020/02/14 13:11:05;;;;;;;18.2;10.3;;;;;;;;;;;;;
2020/02/14 13:13:33;;;;;;;12.4;7.7;;;;;;;;;;;;;
2020/02/14 13:15:59;;;;;;;51.5;31.4;;;;;;;;;;;;;
2020/02/14 13:18:53;;;;;;;1.9;0.9;;;;;;;;;;;;;
2020/02/14 13:23:17;;;;;;;0.9;0.5;;;;;;;;;;;;;
2020/02/14 13:33:13;;;;;;;1.2;0.8;;;;;;;;;;;;;
2020/02/14 13:35:31;;;;;;;0.5;0.5;;;;;;;;;;;;;
2020/02/14 13:37:51;;;;;;;1.5;1;;;;;;;;;;;;;
2020/02/14 13:40:17;;;;;;;2.6;1.3;;;;;;;;;;;;;
2020/02/14 13:42:45;;;;;;;2.7;1.2;;;;;;;;;;;;;
2020/02/14 13:45:12;;;;;;;2.1;1.9;;;;;;;;;;;;;
2020/02/14 13:47:44;;;;;;;1.1;0.8;;;;;;;;;;;;;
2020/02/14 13:50:12;;;;;;;1.4;0.8;;;;;;;;;;;;;
2020/02/14 13:52:38;;;;;;;1.1;0.6;;;;;;;;;;;;;
2020/02/14 13:57:47;;;;;;;3.3;1.5;;;;;;;;;;;;;
2020/02/14 14:00:17;;;;;;;3;1;;;;;;;;;;;;;
2020/02/14 14:02:41;;;;;;;4.9;1.1;;;;;;;;;;;;;
2020/02/14 14:05:24;;;;;;;1.6;1;;;;;;;;;;;;;
2020/02/14 14:07:34;;;;;;;12.5;1.2;;;;;;;;;;;;;
2020/02/14 14:09:57;;;;;;;1.9;0.8;;;;;;;;;;;;;
2020/02/14 14:12:32;;;;;;;4.2;0.7;;;;;;;;;;;;;
2020/02/14 14:14:56;;;;;;;1.3;0.7;;;;;;;;;;;;;
2020/02/14 14:17:34;;;;;;;2.8;1;;;;;;;;;;;;;
2020/02/14 14:20:00;;;;;;;4.1;2.2;;;;;;;;;;;;;
2020/02/14 14:22:28;;;;;;;4.6;2.1;;;;;;;;;;;;;
2020/02/14 14:24:46;;;;;;;8.1;1.8;;;;;;;;;;;;;
2020/02/14 14:27:20;;;;;;;3.8;1.9;;;;;;;;;;;;;
2020/02/14 14:30:15;;;;;;;1.9;0.8;;;;;;;;;;;;;
2020/02/14 14:32:02;;;;;;;1.8;0.6;;;;;;;;;;;;;
2020/02/14 14:34:28;;;;;;;4.4;0.7;;;;;;;;;;;;;
2020/02/14 14:36:55;;;;;;;2.8;0.7;;;;;;;;;;;;;
2020/02/14 14:39:19;;;;;;;9.8;1.5;;;;;;;;;;;;;
2020/02/14 14:41:46;;;;;;;7;0.6;;;;;;;;;;;;;
2020/02/14 14:44:19;;;;;;;3.4;0.7;;;;;;;;;;;;;
2020/02/14 14:46:42;;;;;;;7.6;1.1;;;;;;;;;;;;;
2020/02/14 14:49:13;;;;;;;1.4;0.6;;;;;;;;;;;;;
2020/02/14 14:51:33;;;;;;;1.7;0.7;;;;;;;;;;;;;
2020/02/14 14:54:01;;;;;;;5.3;1.1;;;;;;;;;;;;;
2020/02/14 14:56:32;;;;;;;2.1;0.7;;;;;;;;;;;;;
2020/02/14 14:59:03;;;;;;;1.8;1.1;;;;;;;;;;;;;
2020/02/14 15:01:34;;;;;;;4.8;2;;;;;;;;;;;;;
2020/02/14 15:03:57;;;;;;;1.9;0.7;;;;;;;;;;;;;
2020/02/14 15:06:23;;;;;;;2.5;0.8;;;;;;;;;;;;;
2020/02/14 15:09:24;;;;;;;9.6;2.4;;;;;;;;;;;;;
2020/02/14 15:11:47;;;;;;;5.1;2;;;;;;;;;;;;;
2020/02/14 15:14:11;;;;;;;9;1.3;;;;;;;;;;;;;
2020/02/14 15:16:36;;;;;;;2.2;0.8;;;;;;;;;;;;;
2020/02/14 15:19:12;;;;;;;6.4;1.7;;;;;;;;;;;;;
2020/02/14 15:21:37;;;;;;;3.1;0.7;;;;;;;;;;;;;
2020/02/14 15:24:00;;;;;;;4.1;1.9;;;;;;;;;;;;;
2020/02/14 15:26:25;;;;;;;3.7;1.9;;;;;;;;;;;;;
2020/02/14 15:28:50;;;;;;;7.3;2.6;;;;;;;;;;;;;
2020/02/14 15:31:18;;;;;;;3.6;0.8;;;;;;;;;;;;;
2020/02/14 15:33:41;;;;;;;2.3;0.7;;;;;;;;;;;;;
2020/02/14 15:36:05;;;;;;;2.5;0.7;;;;;;;;;;;;;
2020/02/14 15:38:34;;;;;;;3;1;;;;;;;;;;;;;
2020/02/14 15:41:02;;;;;;;4.3;0.7;;;;;;;;;;;;;
2020/02/14 15:43:25;;;;;;;10.3;1.4;;;;;;;;;;;;;
2020/02/14 15:45:59;;;;;;;2.5;0.4;;;;;;;;;;;;;
2020/02/14 15:50:42;;;;;;;12;1.8;;;;;;;;;;;;;
2020/02/14 15:53:07;;;;;;;4.3;1.9;;;;;;;;;;;;;
2020/02/14 15:55:33;;;;;;;3.2;2;;;;;;;;;;;;;
2020/02/14 16:00:33;;;;;;;7.1;3.8;;;;;;;;;;;;;
2020/02/14 16:02:46;;;;;;;11.5;6.7;;;;;;;;;;;;;
2020/02/14 16:05:31;;;;;;;8.7;4.6;;;;;;;;;;;;;
2020/02/14 16:07:59;;;;;;;8.5;4.1;;;;;;;;;;;;;
2020/02/14 16:10:23;;;;;;;5.7;3.7;;;;;;;;;;;;;
2020/02/14 16:12:49;;;;;;;12.2;4.1;;;;;;;;;;;;;
2020/02/14 16:15:18;;;;;;;11.1;2.5;;;;;;;;;;;;;
2020/02/14 16:17:42;;;;;;;4.3;1.5;;;;;;;;;;;;;
2020/02/14 16:20:05;;;;;;;4.7;1.5;;;;;;;;;;;;;
2020/02/14 16:22:33;;;;;;;6.8;2.8;;;;;;;;;;;;;
2020/02/14 16:25:02;;;;;;;7.5;2.2;;;;;;;;;;;;;
2020/02/14 16:27:23;;;;;;;5.6;1.1;;;;;;;;;;;;;
2020/02/14 16:29:49;;;;;;;2.8;1.3;;;;;;;;;;;;;
2020/02/14 16:32:20;;;;;;;5.1;1.5;;;;;;;;;;;;;
2020/02/14 16:34:40;;;;;;;4.3;1.4;;;;;;;;;;;;;
2020/02/14 16:37:25;;;;;;;2.9;1.2;;;;;;;;;;;;;
2020/02/14 16:39:49;;;;;;;1.9;1.3;;;;;;;;;;;;;
2020/02/14 16:42:22;;;;;;;2.3;1.4;;;;;;;;;;;;;
2020/02/14 16:44:39;;;;;;;3.4;1.9;;;;;;;;;;;;;
2020/02/14 16:47:26;;;;;;;4.5;2.8;;;;;;;;;;;;;
2020/02/14 16:49:50;;;;;;;4.8;2.7;;;;;;;;;;;;;
2020/02/14 16:52:19;;;;;;;8.1;5.6;;;;;;;;;;;;;
2020/02/14 16:54:44;;;;;;;17.5;13.4;;;;;;;;;;;;;
2020/02/14 16:57:27;;;;;;;9.1;4.3;;;;;;;;;;;;;
2020/02/14 16:59:53;;;;;;;5.7;2.3;;;;;;;;;;;;;
2020/02/14 17:02:24;;;;;;;7.5;3.6;;;;;;;;;;;;;
2020/02/14 17:04:53;;;;;;;6.1;4;;;;;;;;;;;;;
2020/02/14 17:07:16;;;;;;;3.3;1.8;;;;;;;;;;;;;
2020/02/14 17:09:43;;;;;;;2.5;1.8;;;;;;;;;;;;;
2020/02/14 17:12:04;;;;;;;2.9;2.1;;;;;;;;;;;;;
2020/02/14 17:14:33;;;;;;;6.9;3.8;;;;;;;;;;;;;
2020/02/14 17:16:55;;;;;;;10.2;3.7;;;;;;;;;;;;;
2020/02/14 17:19:35;;;;;;;4.9;3.4;;;;;;;;;;;;;
2020/02/14 17:21:46;;;;;;;8.2;5.6;;;;;;;;;;;;;
2020/02/14 17:24:26;;;;;;;7.5;5.8;;;;;;;;;;;;;
2020/02/14 17:29:51;;;;;;;3.1;2;;;;;;;;;;;;;
2020/02/14 17:31:47;;;;;;;14.1;6;;;;;;;;;;;;;
2020/02/14 17:34:11;;;;;;;5.2;2.7;;;;;;;;;;;;;
2020/02/14 17:36:40;;;;;;;35.9;31.2;;;;;;;;;;;;;
2020/02/14 17:39:24;;;;;;;32.9;28.2;;;;;;;;;;;;;
2020/02/14 17:42:00;;;;;;;7.8;5.5;;;;;;;;;;;;;
2020/02/14 17:44:19;;;;;;;8;4.8;;;;;;;;;;;;;
2020/02/14 17:46:45;;;;;;;7.2;4.4;;;;;;;;;;;;;
2020/02/14 17:49:19;;;;;;;6.7;4.1;;;;;;;;;;;;;
2020/02/14 17:51:51;;;;;;;7.8;4.6;;;;;;;;;;;;;
2020/02/14 17:54:21;;;;;;;6.8;4.4;;;;;;;;;;;;;
2020/02/14 17:56:48;;;;;;;8.6;4.6;;;;;;;;;;;;;
2020/02/14 17:59:20;;;;;;;14.2;9;;;;;;;;;;;;;
2020/02/14 18:01:47;;;;;;;15.1;10.4;;;;;;;;;;;;;
2020/02/14 18:04:12;;;;;;;16.6;11.5;;;;;;;;;;;;;
2020/02/14 18:07:19;;;;;;;15.6;11.6;;;;;;;;;;;;;
2020/02/14 18:09:32;;;;;;;16.1;11.4;;;;;;;;;;;;;
2020/02/14 18:11:58;;;;;;;12.4;9;;;;;;;;;;;;;
2020/02/14 18:14:24;;;;;;;12.7;8.8;;;;;;;;;;;;;
2020/02/14 18:16:47;;;;;;;14.1;9.1;;;;;;;;;;;;;
2020/02/14 18:19:53;;;;;;;23.8;14.2;;;;;;;;;;;;;
2020/02/14 18:21:51;;;;;;;41.8;24.5;;;;;;;;;;;;;
2020/02/14 18:24:18;;;;;;;25.8;14.9;;;;;;;;;;;;;
2020/02/14 18:26:49;;;;;;;45.6;23.9;;;;;;;;;;;;;
2020/02/14 18:29:12;;;;;;;27.5;16;;;;;;;;;;;;;
2020/02/14 18:33:29;;;;;;;8.9;6.2;;;;;;;;;;;;;
2020/02/14 18:34:19;;;;;;;12.8;7.4;;;;;;;;;;;;;
2020/02/14 18:41:17;;;;;;;16.1;8.3;;;;;;;;;;;;;
2020/02/14 18:43:40;;;;;;;12.4;8.7;;;;;;;;;;;;;
2020/02/14 18:46:11;;;;;;;11.6;7.1;;;;;;;;;;;;;
2020/02/14 18:48:34;;;;;;;12.5;6.9;;;;;;;;;;;;;
2020/02/14 18:51:18;;;;;;;7.8;3.2;;;;;;;;;;;;;
2020/02/14 18:53:43;;;;;;;6;3.3;;;;;;;;;;;;;
2020/02/14 18:56:10;;;;;;;6.2;4;;;;;;;;;;;;;
2020/02/14 18:58:35;;;;;;;7.6;4.8;;;;;;;;;;;;;
2020/02/14 19:00:59;;;;;;;7.8;4.8;;;;;;;;;;;;;
2020/02/14 19:03:28;;;;;;;9.5;5.5;;;;;;;;;;;;;
2020/02/14 19:05:53;;;;;;;8.2;4.5;;;;;;;;;;;;;
2020/02/14 19:08:17;;;;;;;12.9;4.7;;;;;;;;;;;;;
2020/02/14 19:10:46;;;;;;;8.1;4.8;;;;;;;;;;;;;
2020/02/14 19:15:52;;;;;;;8.1;4.8;;;;;;;;;;;;;
2020/02/14 19:17:59;;;;;;;5.3;3.4;;;;;;;;;;;;;
2020/02/14 19:20:28;;;;;;;4.6;3.5;;;;;;;;;;;;;
2020/02/14 19:22:52;;;;;;;4.1;3.2;;;;;;;;;;;;;
2020/02/14 19:25:20;;;;;;;4.5;3.1;;;;;;;;;;;;;
2020/02/14 19:27:44;;;;;;;4.6;3.1;;;;;;;;;;;;;
2020/02/14 19:30:18;;;;;;;5.9;3.8;;;;;;;;;;;;;
2020/02/14 19:32:34;;;;;;;7.3;4.9;;;;;;;;;;;;;
2020/02/14 19:34:58;;;;;;;6.2;4.6;;;;;;;;;;;;;
2020/02/14 19:37:25;;;;;;;8.3;6.1;;;;;;;;;;;;;
2020/02/14 19:39:48;;;;;;;5.7;4;;;;;;;;;;;;;
2020/02/14 19:42:14;;;;;;;6.9;5.4;;;;;;;;;;;;;
2020/02/14 19:44:38;;;;;;;11;8;;;;;;;;;;;;;
2020/02/14 19:47:11;;;;;;;13.3;10.2;;;;;;;;;;;;;
2020/02/14 19:49:35;;;;;;;9;7.1;;;;;;;;;;;;;
2020/02/14 19:51:58;;;;;;;12;8.1;;;;;;;;;;;;;
2020/02/14 19:54:25;;;;;;;15.1;10.7;;;;;;;;;;;;;
2020/02/14 19:56:49;;;;;;;17.1;13.2;;;;;;;;;;;;;
2020/02/14 19:59:20;;;;;;;21.4;14.4;;;;;;;;;;;;;
2020/02/14 20:01:55;;;;;;;18.4;13.6;;;;;;;;;;;;;
2020/02/14 20:04:17;;;;;;;14.8;10.6;;;;;;;;;;;;;
2020/02/14 20:06:37;;;;;;;16.2;10.2;;;;;;;;;;;;;
2020/02/14 20:09:03;;;;;;;14.4;9.7;;;;;;;;;;;;;
2020/02/14 20:11:28;;;;;;;48;41.6;;;;;;;;;;;;;
2020/02/14 20:14:00;;;;;;;16.5;12.5;;;;;;;;;;;;;
2020/02/14 20:16:25;;;;;;;13.7;9.5;;;;;;;;;;;;;
2020/02/14 20:19:04;;;;;;;14.8;10.8;;;;;;;;;;;;;
2020/02/14 20:21:28;;;;;;;14;10.3;;;;;;;;;;;;;
2020/02/14 20:23:57;;;;;;;14.5;8.5;;;;;;;;;;;;;
2020/02/14 20:26:26;;;;;;;14.2;9.1;;;;;;;;;;;;;
2020/02/14 20:28:56;;;;;;;16.7;10.8;;;;;;;;;;;;;